sensor_id;sensor_type;location;lat;lon;timestamp;temperature;humidity
3770;DHT22;1900;48.890;9.190;2022-08-03T00:00:00;29.50;44.40
3770;DHT22;1900;48.890;9.190;2022-08-03T00:02:25;29.60;44.50
3770;DHT22;1900;48.890;9.190;2022-08-03T00:04:51;29.50;44.50
3770;DHT22;1900;48.890;9.190;2022-08-03T00:07:17;29.50;44.50
3770;DHT22;1900;48.890;9.190;2022-08-03T00:09:43;29.50;44.60
3770;DHT22;1900;48.890;9.190;2022-08-03T00:12:09;29.50;44.60
3770;DHT22;1900;48.890;9.190;2022-08-03T00:14:35;29.50;44.60
3770;DHT22;1900;48.890;9.190;2022-08-03T00:17:00;29.40;44.50
3770;DHT22;1900;48.890;9.190;2022-08-03T00:19:26;29.50;44.60
3770;DHT22;1900;48.890;9.190;2022-08-03T00:21:52;29.40;44.60
3770;DHT22;1900;48.890;9.190;2022-08-03T00:24:18;29.40;44.70
3770;DHT22;1900;48.890;9.190;2022-08-03T00:26:44;29.40;44.70
3770;DHT22;1900;48.890;9.190;2022-08-03T00:29:10;29.40;44.70
3770;DHT22;1900;48.890;9.190;2022-08-03T00:31:35;29.40;44.80
3770;DHT22;1900;48.890;9.190;2022-08-03T00:34:01;29.30;44.60
3770;DHT22;1900;48.890;9.190;2022-08-03T00:36:27;29.40;44.70
3770;DHT22;1900;48.890;9.190;2022-08-03T00:38:54;29.30;44.60
3770;DHT22;1900;48.890;9.190;2022-08-03T00:41:20;29.30;44.70
3770;DHT22;1900;48.890;9.190;2022-08-03T00:43:45;29.20;44.60
3770;DHT22;1900;48.890;9.190;2022-08-03T00:46:12;29.20;44.60
3770;DHT22;1900;48.890;9.190;2022-08-03T00:48:38;29.10;44.60
3770;DHT22;1900;48.890;9.190;2022-08-03T00:51:04;29.10;44.70
3770;DHT22;1900;48.890;9.190;2022-08-03T00:53:32;29.00;44.60
3770;DHT22;1900;48.890;9.190;2022-08-03T00:55:59;29.00;44.70
3770;DHT22;1900;48.890;9.190;2022-08-03T00:58:25;29.00;44.70
3770;DHT22;1900;48.890;9.190;2022-08-03T01:00:51;29.00;44.80
3770;DHT22;1900;48.890;9.190;2022-08-03T01:03:17;28.90;44.80
3770;DHT22;1900;48.890;9.190;2022-08-03T01:08:53;28.90;45.10
3770;DHT22;1900;48.890;9.190;2022-08-03T01:11:33;28.80;45.00
3770;DHT22;1900;48.890;9.190;2022-08-03T01:16:37;28.80;45.00
3770;DHT22;1900;48.890;9.190;2022-08-03T01:19:44;28.70;45.10
3770;DHT22;1900;48.890;9.190;2022-08-03T01:25:05;28.70;45.10
3770;DHT22;1900;48.890;9.190;2022-08-03T01:30:40;28.70;45.30
3770;DHT22;1900;48.890;9.190;2022-08-03T01:33:14;28.60;45.20
3770;DHT22;1900;48.890;9.190;2022-08-03T01:35:52;28.60;45.20
3770;DHT22;1900;48.890;9.190;2022-08-03T01:38:24;28.60;45.30
3770;DHT22;1900;48.890;9.190;2022-08-03T01:40:52;28.60;45.30
3770;DHT22;1900;48.890;9.190;2022-08-03T01:43:25;28.50;45.20
3770;DHT22;1900;48.890;9.190;2022-08-03T01:45:53;28.50;45.30
3770;DHT22;1900;48.890;9.190;2022-08-03T01:48:20;28.50;45.30
3770;DHT22;1900;48.890;9.190;2022-08-03T01:50:47;28.50;45.40
3770;DHT22;1900;48.890;9.190;2022-08-03T01:53:16;28.40;45.40
3770;DHT22;1900;48.890;9.190;2022-08-03T01:55:45;28.40;45.50
3770;DHT22;1900;48.890;9.190;2022-08-03T01:58:14;28.40;45.60
3770;DHT22;1900;48.890;9.190;2022-08-03T02:00:42;28.40;45.60
3770;DHT22;1900;48.890;9.190;2022-08-03T02:03:11;28.40;45.70
3770;DHT22;1900;48.890;9.190;2022-08-03T02:05:42;28.40;45.80
3770;DHT22;1900;48.890;9.190;2022-08-03T02:08:11;28.40;45.90
3770;DHT22;1900;48.890;9.190;2022-08-03T02:10:40;28.40;45.80
3770;DHT22;1900;48.890;9.190;2022-08-03T02:13:07;28.40;45.90
3770;DHT22;1900;48.890;9.190;2022-08-03T02:15:35;28.30;45.80
3770;DHT22;1900;48.890;9.190;2022-08-03T02:18:03;28.30;45.80
3770;DHT22;1900;48.890;9.190;2022-08-03T02:20:30;28.30;45.80
3770;DHT22;1900;48.890;9.190;2022-08-03T02:22:57;28.30;46.50
3770;DHT22;1900;48.890;9.190;2022-08-03T02:25:23;28.20;45.70
3770;DHT22;1900;48.890;9.190;2022-08-03T02:27:56;28.20;45.70
3770;DHT22;1900;48.890;9.190;2022-08-03T02:30:29;28.20;45.80
3770;DHT22;1900;48.890;9.190;2022-08-03T02:32:56;28.10;45.90
3770;DHT22;1900;48.890;9.190;2022-08-03T02:35:24;28.10;45.80
3770;DHT22;1900;48.890;9.190;2022-08-03T02:37:53;28.10;45.90
3770;DHT22;1900;48.890;9.190;2022-08-03T02:40:22;28.10;46.00
3770;DHT22;1900;48.890;9.190;2022-08-03T02:42:52;28.00;46.00
3770;DHT22;1900;48.890;9.190;2022-08-03T02:45:19;28.00;46.00
3770;DHT22;1900;48.890;9.190;2022-08-03T02:47:48;28.00;46.10
3770;DHT22;1900;48.890;9.190;2022-08-03T02:50:18;28.00;46.10
3770;DHT22;1900;48.890;9.190;2022-08-03T02:52:45;28.00;46.10
3770;DHT22;1900;48.890;9.190;2022-08-03T02:55:13;28.00;46.20
3770;DHT22;1900;48.890;9.190;2022-08-03T02:57:39;28.00;46.20
3770;DHT22;1900;48.890;9.190;2022-08-03T03:00:06;27.90;46.20
3770;DHT22;1900;48.890;9.190;2022-08-03T03:02:33;27.90;46.30
3770;DHT22;1900;48.890;9.190;2022-08-03T03:05:00;27.90;46.30
3770;DHT22;1900;48.890;9.190;2022-08-03T03:07:26;27.90;46.30
3770;DHT22;1900;48.890;9.190;2022-08-03T03:09:53;27.90;46.40
3770;DHT22;1900;48.890;9.190;2022-08-03T03:12:20;27.90;46.40
3770;DHT22;1900;48.890;9.190;2022-08-03T03:14:46;27.80;46.20
3770;DHT22;1900;48.890;9.190;2022-08-03T03:17:14;27.80;46.20
3770;DHT22;1900;48.890;9.190;2022-08-03T03:19:41;27.70;46.20
3770;DHT22;1900;48.890;9.190;2022-08-03T03:22:09;27.70;46.20
3770;DHT22;1900;48.890;9.190;2022-08-03T03:24:36;27.70;46.20
3770;DHT22;1900;48.890;9.190;2022-08-03T03:27:04;27.60;46.20
3770;DHT22;1900;48.890;9.190;2022-08-03T03:29:31;27.60;46.20
3770;DHT22;1900;48.890;9.190;2022-08-03T03:31:57;27.60;46.30
3770;DHT22;1900;48.890;9.190;2022-08-03T03:34:23;27.50;46.30
3770;DHT22;1900;48.890;9.190;2022-08-03T03:36:49;27.50;46.30
3770;DHT22;1900;48.890;9.190;2022-08-03T03:39:15;27.50;46.40
3770;DHT22;1900;48.890;9.190;2022-08-03T03:41:41;27.40;46.40
3770;DHT22;1900;48.890;9.190;2022-08-03T03:44:07;27.40;47.00
3770;DHT22;1900;48.890;9.190;2022-08-03T03:46:33;27.40;46.50
3770;DHT22;1900;48.890;9.190;2022-08-03T03:48:59;27.40;46.50
3770;DHT22;1900;48.890;9.190;2022-08-03T03:51:24;27.30;46.50
3770;DHT22;1900;48.890;9.190;2022-08-03T03:54:01;27.30;46.60
3770;DHT22;1900;48.890;9.190;2022-08-03T03:56:27;27.30;46.90
3770;DHT22;1900;48.890;9.190;2022-08-03T03:58:54;27.30;46.80
3770;DHT22;1900;48.890;9.190;2022-08-03T04:01:21;27.30;46.80
3770;DHT22;1900;48.890;9.190;2022-08-03T04:03:47;27.30;46.80
3770;DHT22;1900;48.890;9.190;2022-08-03T04:06:13;27.30;46.80
3770;DHT22;1900;48.890;9.190;2022-08-03T04:08:59;27.30;46.90
3770;DHT22;1900;48.890;9.190;2022-08-03T04:11:51;27.20;46.80
3770;DHT22;1900;48.890;9.190;2022-08-03T04:14:18;27.20;47.10
3770;DHT22;1900;48.890;9.190;2022-08-03T04:17:00;27.20;46.90
3770;DHT22;1900;48.890;9.190;2022-08-03T04:19:48;27.20;47.10
3770;DHT22;1900;48.890;9.190;2022-08-03T04:22:18;27.20;47.20
3770;DHT22;1900;48.890;9.190;2022-08-03T04:24:48;27.20;47.20
3770;DHT22;1900;48.890;9.190;2022-08-03T04:27:19;27.20;47.30
3770;DHT22;1900;48.890;9.190;2022-08-03T04:29:48;27.20;47.30
3770;DHT22;1900;48.890;9.190;2022-08-03T04:32:16;27.20;47.40
3770;DHT22;1900;48.890;9.190;2022-08-03T04:34:42;27.20;47.30
3770;DHT22;1900;48.890;9.190;2022-08-03T04:37:16;27.20;47.30
3770;DHT22;1900;48.890;9.190;2022-08-03T04:39:43;27.20;47.50
3770;DHT22;1900;48.890;9.190;2022-08-03T04:42:11;27.20;47.30
3770;DHT22;1900;48.890;9.190;2022-08-03T04:44:40;27.20;47.50
3770;DHT22;1900;48.890;9.190;2022-08-03T04:47:07;27.20;47.50
3770;DHT22;1900;48.890;9.190;2022-08-03T04:49:35;27.20;47.50
3770;DHT22;1900;48.890;9.190;2022-08-03T04:52:02;27.20;47.60
3770;DHT22;1900;48.890;9.190;2022-08-03T04:54:29;27.20;47.60
3770;DHT22;1900;48.890;9.190;2022-08-03T04:56:55;27.10;47.50
3770;DHT22;1900;48.890;9.190;2022-08-03T04:59:21;27.10;47.40
3770;DHT22;1900;48.890;9.190;2022-08-03T05:01:46;27.10;47.40
3770;DHT22;1900;48.890;9.190;2022-08-03T05:04:12;27.10;47.40
3770;DHT22;1900;48.890;9.190;2022-08-03T05:06:38;27.00;47.30
3770;DHT22;1900;48.890;9.190;2022-08-03T05:09:03;27.00;47.40
3770;DHT22;1900;48.890;9.190;2022-08-03T05:11:29;26.90;47.30
3770;DHT22;1900;48.890;9.190;2022-08-03T05:13:55;26.90;47.50
3770;DHT22;1900;48.890;9.190;2022-08-03T05:16:20;26.90;47.40
3770;DHT22;1900;48.890;9.190;2022-08-03T05:18:46;26.80;47.30
3770;DHT22;1900;48.890;9.190;2022-08-03T05:21:12;26.80;47.50
3770;DHT22;1900;48.890;9.190;2022-08-03T05:23:42;26.80;47.70
3770;DHT22;1900;48.890;9.190;2022-08-03T05:26:08;26.70;47.60
3770;DHT22;1900;48.890;9.190;2022-08-03T05:28:36;26.70;47.70
3770;DHT22;1900;48.890;9.190;2022-08-03T05:31:02;26.70;47.70
3770;DHT22;1900;48.890;9.190;2022-08-03T05:33:28;26.70;47.80
3770;DHT22;1900;48.890;9.190;2022-08-03T05:35:53;26.70;47.80
3770;DHT22;1900;48.890;9.190;2022-08-03T05:38:19;26.60;47.80
3770;DHT22;1900;48.890;9.190;2022-08-03T05:40:45;26.60;47.90
3770;DHT22;1900;48.890;9.190;2022-08-03T05:43:11;26.60;47.90
3770;DHT22;1900;48.890;9.190;2022-08-03T05:45:36;26.60;47.90
3770;DHT22;1900;48.890;9.190;2022-08-03T05:48:04;26.60;48.00
3770;DHT22;1900;48.890;9.190;2022-08-03T05:50:30;26.60;48.20
3770;DHT22;1900;48.890;9.190;2022-08-03T05:52:56;26.60;48.20
3770;DHT22;1900;48.890;9.190;2022-08-03T05:55:22;26.60;48.40
3770;DHT22;1900;48.890;9.190;2022-08-03T05:57:48;26.70;48.40
3770;DHT22;1900;48.890;9.190;2022-08-03T06:00:14;26.70;48.50
3770;DHT22;1900;48.890;9.190;2022-08-03T06:02:40;26.70;48.50
3770;DHT22;1900;48.890;9.190;2022-08-03T06:05:06;26.70;48.50
3770;DHT22;1900;48.890;9.190;2022-08-03T06:07:33;26.80;48.60
3770;DHT22;1900;48.890;9.190;2022-08-03T06:09:59;26.80;48.70
3770;DHT22;1900;48.890;9.190;2022-08-03T06:12:27;26.80;48.80
3770;DHT22;1900;48.890;9.190;2022-08-03T06:14:53;26.80;48.80
3770;DHT22;1900;48.890;9.190;2022-08-03T06:17:19;26.90;49.00
3770;DHT22;1900;48.890;9.190;2022-08-03T06:19:45;26.90;48.90
3770;DHT22;1900;48.890;9.190;2022-08-03T06:22:10;27.00;49.00
3770;DHT22;1900;48.890;9.190;2022-08-03T06:24:36;27.00;49.00
3770;DHT22;1900;48.890;9.190;2022-08-03T06:27:02;27.00;49.00
3770;DHT22;1900;48.890;9.190;2022-08-03T06:29:27;27.00;48.90
3770;DHT22;1900;48.890;9.190;2022-08-03T06:31:53;27.00;49.00
3770;DHT22;1900;48.890;9.190;2022-08-03T06:34:19;27.10;49.20
3770;DHT22;1900;48.890;9.190;2022-08-03T06:36:44;27.10;49.20
3770;DHT22;1900;48.890;9.190;2022-08-03T06:39:12;27.10;49.30
3770;DHT22;1900;48.890;9.190;2022-08-03T06:41:38;27.10;49.30
3770;DHT22;1900;48.890;9.190;2022-08-03T06:44:07;27.20;49.50
3770;DHT22;1900;48.890;9.190;2022-08-03T06:46:33;27.20;49.50
3770;DHT22;1900;48.890;9.190;2022-08-03T06:48:58;27.30;49.50
3770;DHT22;1900;48.890;9.190;2022-08-03T06:51:24;27.30;49.50
3770;DHT22;1900;48.890;9.190;2022-08-03T06:53:50;27.40;49.60
3770;DHT22;1900;48.890;9.190;2022-08-03T06:56:16;27.40;49.60
3770;DHT22;1900;48.890;9.190;2022-08-03T06:58:41;27.50;49.80
3770;DHT22;1900;48.890;9.190;2022-08-03T07:01:07;27.50;49.80
3770;DHT22;1900;48.890;9.190;2022-08-03T07:03:33;27.60;50.00
3770;DHT22;1900;48.890;9.190;2022-08-03T07:05:59;27.70;50.10
3770;DHT22;1900;48.890;9.190;2022-08-03T07:08:25;27.80;50.30
3770;DHT22;1900;48.890;9.190;2022-08-03T07:10:51;27.80;50.20
3770;DHT22;1900;48.890;9.190;2022-08-03T07:13:17;27.90;50.10
3770;DHT22;1900;48.890;9.190;2022-08-03T07:15:43;28.00;50.20
3770;DHT22;1900;48.890;9.190;2022-08-03T07:18:08;28.00;50.20
3770;DHT22;1900;48.890;9.190;2022-08-03T07:20:34;28.10;50.30
3770;DHT22;1900;48.890;9.190;2022-08-03T07:23:00;28.10;50.20
3770;DHT22;1900;48.890;9.190;2022-08-03T07:25:25;28.20;50.30
3770;DHT22;1900;48.890;9.190;2022-08-03T07:27:51;28.30;50.40
3770;DHT22;1900;48.890;9.190;2022-08-03T07:30:17;28.30;50.30
3770;DHT22;1900;48.890;9.190;2022-08-03T07:32:43;28.40;50.40
3770;DHT22;1900;48.890;9.190;2022-08-03T07:35:10;28.40;50.40
3770;DHT22;1900;48.890;9.190;2022-08-03T07:37:36;28.50;50.50
3770;DHT22;1900;48.890;9.190;2022-08-03T07:40:03;28.50;50.60
3770;DHT22;1900;48.890;9.190;2022-08-03T07:42:30;28.60;50.60
3770;DHT22;1900;48.890;9.190;2022-08-03T07:44:57;28.60;50.60
3770;DHT22;1900;48.890;9.190;2022-08-03T07:47:25;28.70;50.60
3770;DHT22;1900;48.890;9.190;2022-08-03T07:49:51;28.80;50.80
3770;DHT22;1900;48.890;9.190;2022-08-03T07:52:17;28.90;50.80
3770;DHT22;1900;48.890;9.190;2022-08-03T07:55:01;28.90;50.80
3770;DHT22;1900;48.890;9.190;2022-08-03T07:57:27;29.00;50.80
3770;DHT22;1900;48.890;9.190;2022-08-03T07:59:53;29.10;50.90
3770;DHT22;1900;48.890;9.190;2022-08-03T08:02:19;29.10;51.00
3770;DHT22;1900;48.890;9.190;2022-08-03T08:04:44;29.20;51.00
3770;DHT22;1900;48.890;9.190;2022-08-03T08:07:10;29.30;51.00
3770;DHT22;1900;48.890;9.190;2022-08-03T08:09:36;29.30;51.10
3770;DHT22;1900;48.890;9.190;2022-08-03T08:12:02;29.40;51.20
3770;DHT22;1900;48.890;9.190;2022-08-03T08:14:28;29.50;51.20
3770;DHT22;1900;48.890;9.190;2022-08-03T08:16:54;29.60;51.20
3770;DHT22;1900;48.890;9.190;2022-08-03T08:19:20;29.70;51.10
3770;DHT22;1900;48.890;9.190;2022-08-03T08:21:45;29.80;51.10
3770;DHT22;1900;48.890;9.190;2022-08-03T08:24:11;29.80;51.00
3770;DHT22;1900;48.890;9.190;2022-08-03T08:26:37;29.90;51.00
3770;DHT22;1900;48.890;9.190;2022-08-03T08:29:03;30.00;51.10
3770;DHT22;1900;48.890;9.190;2022-08-03T08:31:29;30.00;51.00
3770;DHT22;1900;48.890;9.190;2022-08-03T08:33:55;30.10;51.10
3770;DHT22;1900;48.890;9.190;2022-08-03T08:36:21;30.10;51.10
3770;DHT22;1900;48.890;9.190;2022-08-03T08:38:46;30.20;51.20
3770;DHT22;1900;48.890;9.190;2022-08-03T08:41:13;30.30;51.20
3770;DHT22;1900;48.890;9.190;2022-08-03T08:43:40;30.40;51.30
3770;DHT22;1900;48.890;9.190;2022-08-03T08:46:10;30.50;51.40
3770;DHT22;1900;48.890;9.190;2022-08-03T08:48:39;30.60;51.30
3770;DHT22;1900;48.890;9.190;2022-08-03T08:51:07;30.70;51.20
3770;DHT22;1900;48.890;9.190;2022-08-03T08:53:35;30.80;51.20
3770;DHT22;1900;48.890;9.190;2022-08-03T08:56:02;30.80;51.20
3770;DHT22;1900;48.890;9.190;2022-08-03T08:58:33;30.90;51.20
3770;DHT22;1900;48.890;9.190;2022-08-03T09:00:59;31.00;51.20
3770;DHT22;1900;48.890;9.190;2022-08-03T09:03:25;31.10;51.20
3770;DHT22;1900;48.890;9.190;2022-08-03T09:05:51;31.20;51.20
3770;DHT22;1900;48.890;9.190;2022-08-03T09:08:17;31.30;51.10
3770;DHT22;1900;48.890;9.190;2022-08-03T09:10:43;31.30;51.10
3770;DHT22;1900;48.890;9.190;2022-08-03T09:13:08;31.40;51.00
3770;DHT22;1900;48.890;9.190;2022-08-03T09:15:34;31.40;50.90
3770;DHT22;1900;48.890;9.190;2022-08-03T09:18:03;31.50;50.80
3770;DHT22;1900;48.890;9.190;2022-08-03T09:20:31;31.60;50.70
3770;DHT22;1900;48.890;9.190;2022-08-03T09:25:46;31.70;50.90
3770;DHT22;1900;48.890;9.190;2022-08-03T09:28:14;31.80;50.80
3770;DHT22;1900;48.890;9.190;2022-08-03T09:30:56;31.80;50.80
3770;DHT22;1900;48.890;9.190;2022-08-03T09:33:23;31.90;50.80
3770;DHT22;1900;48.890;9.190;2022-08-03T09:35:49;32.00;50.70
3770;DHT22;1900;48.890;9.190;2022-08-03T09:40:43;32.20;50.80
3770;DHT22;1900;48.890;9.190;2022-08-03T09:43:10;32.20;50.90
3770;DHT22;1900;48.890;9.190;2022-08-03T09:45:38;32.30;51.10
3770;DHT22;1900;48.890;9.190;2022-08-03T09:48:24;32.40;51.20
3770;DHT22;1900;48.890;9.190;2022-08-03T09:50:55;32.70;51.30
3770;DHT22;1900;48.890;9.190;2022-08-03T09:53:22;32.70;51.40
3770;DHT22;1900;48.890;9.190;2022-08-03T09:55:59;32.90;51.40
3770;DHT22;1900;48.890;9.190;2022-08-03T09:58:26;33.00;51.40
3770;DHT22;1900;48.890;9.190;2022-08-03T10:01:04;33.20;51.50
3770;DHT22;1900;48.890;9.190;2022-08-03T10:03:32;33.30;51.40
3770;DHT22;1900;48.890;9.190;2022-08-03T10:06:17;33.50;51.50
3770;DHT22;1900;48.890;9.190;2022-08-03T10:09:09;33.60;51.30
3770;DHT22;1900;48.890;9.190;2022-08-03T10:11:37;33.70;51.30
3770;DHT22;1900;48.890;9.190;2022-08-03T10:14:07;33.90;51.60
3770;DHT22;1900;48.890;9.190;2022-08-03T10:16:38;34.00;51.50
3770;DHT22;1900;48.890;9.190;2022-08-03T10:19:06;34.10;51.40
3770;DHT22;1900;48.890;9.190;2022-08-03T10:21:36;34.30;51.40
3770;DHT22;1900;48.890;9.190;2022-08-03T10:24:06;34.40;51.20
3770;DHT22;1900;48.890;9.190;2022-08-03T10:26:39;34.50;51.30
3770;DHT22;1900;48.890;9.190;2022-08-03T10:29:11;34.60;51.20
3770;DHT22;1900;48.890;9.190;2022-08-03T10:31:38;34.70;51.20
3770;DHT22;1900;48.890;9.190;2022-08-03T10:34:14;34.80;51.20
3770;DHT22;1900;48.890;9.190;2022-08-03T10:36:42;35.00;51.20
3770;DHT22;1900;48.890;9.190;2022-08-03T10:39:09;35.10;51.20
3770;DHT22;1900;48.890;9.190;2022-08-03T10:41:39;35.10;51.00
3770;DHT22;1900;48.890;9.190;2022-08-03T10:44:13;35.20;50.60
3770;DHT22;1900;48.890;9.190;2022-08-03T10:46:42;35.30;50.60
3770;DHT22;1900;48.890;9.190;2022-08-03T10:49:12;35.40;50.90
3770;DHT22;1900;48.890;9.190;2022-08-03T10:51:40;35.50;50.90
3770;DHT22;1900;48.890;9.190;2022-08-03T10:54:06;35.60;50.90
3770;DHT22;1900;48.890;9.190;2022-08-03T11:02:14;36.00;50.90
3770;DHT22;1900;48.890;9.190;2022-08-03T11:04:41;36.10;50.90
3770;DHT22;1900;48.890;9.190;2022-08-03T11:09:51;36.20;50.10
3770;DHT22;1900;48.890;9.190;2022-08-03T11:12:26;36.30;50.60
3770;DHT22;1900;48.890;9.190;2022-08-03T11:14:54;36.30;50.10
3770;DHT22;1900;48.890;9.190;2022-08-03T11:17:20;36.30;49.90
3770;DHT22;1900;48.890;9.190;2022-08-03T11:19:49;36.40;49.90
3770;DHT22;1900;48.890;9.190;2022-08-03T11:22:15;36.50;50.00
3770;DHT22;1900;48.890;9.190;2022-08-03T11:35:19;36.90;49.90
3770;DHT22;1900;48.890;9.190;2022-08-03T11:43:09;37.20;49.50
3770;DHT22;1900;48.890;9.190;2022-08-03T11:45:36;37.20;49.60
3770;DHT22;1900;48.890;9.190;2022-08-03T11:48:13;37.30;49.40
3770;DHT22;1900;48.890;9.190;2022-08-03T11:50:40;37.30;49.20
3770;DHT22;1900;48.890;9.190;2022-08-03T11:53:13;37.40;48.90
3770;DHT22;1900;48.890;9.190;2022-08-03T11:55:39;37.50;48.90
3770;DHT22;1900;48.890;9.190;2022-08-03T11:58:07;37.50;49.20
3770;DHT22;1900;48.890;9.190;2022-08-03T12:00:33;37.60;49.30
3770;DHT22;1900;48.890;9.190;2022-08-03T12:03:02;37.70;49.20
3770;DHT22;1900;48.890;9.190;2022-08-03T12:05:44;37.80;49.20
3770;DHT22;1900;48.890;9.190;2022-08-03T12:08:12;37.90;48.90
3770;DHT22;1900;48.890;9.190;2022-08-03T12:10:40;37.90;48.90
3770;DHT22;1900;48.890;9.190;2022-08-03T12:13:10;38.00;48.70
3770;DHT22;1900;48.890;9.190;2022-08-03T12:15:36;38.10;48.70
3770;DHT22;1900;48.890;9.190;2022-08-03T12:18:12;38.10;48.60
3770;DHT22;1900;48.890;9.190;2022-08-03T12:20:38;38.20;48.50
3770;DHT22;1900;48.890;9.190;2022-08-03T12:23:05;38.30;48.60
3770;DHT22;1900;48.890;9.190;2022-08-03T12:25:33;38.30;48.70
3770;DHT22;1900;48.890;9.190;2022-08-03T12:28:10;38.40;48.90
3770;DHT22;1900;48.890;9.190;2022-08-03T12:30:38;38.60;48.70
3770;DHT22;1900;48.890;9.190;2022-08-03T12:33:24;38.70;48.80
3770;DHT22;1900;48.890;9.190;2022-08-03T12:36:09;38.80;48.10
3770;DHT22;1900;48.890;9.190;2022-08-03T12:38:38;38.90;48.20
3770;DHT22;1900;48.890;9.190;2022-08-03T12:41:09;39.00;48.20
3770;DHT22;1900;48.890;9.190;2022-08-03T12:43:47;39.10;48.00
3770;DHT22;1900;48.890;9.190;2022-08-03T12:46:15;39.10;47.90
3770;DHT22;1900;48.890;9.190;2022-08-03T12:49:09;39.20;48.10
3770;DHT22;1900;48.890;9.190;2022-08-03T12:51:56;39.30;48.10
3770;DHT22;1900;48.890;9.190;2022-08-03T12:54:27;39.50;48.20
3770;DHT22;1900;48.890;9.190;2022-08-03T12:57:08;39.50;48.20
3770;DHT22;1900;48.890;9.190;2022-08-03T12:59:41;39.60;47.70
3770;DHT22;1900;48.890;9.190;2022-08-03T13:02:18;39.70;47.60
3770;DHT22;1900;48.890;9.190;2022-08-03T13:04:45;39.70;47.40
3770;DHT22;1900;48.890;9.190;2022-08-03T13:07:12;39.70;47.40
3770;DHT22;1900;48.890;9.190;2022-08-03T13:12:18;39.90;46.70
3770;DHT22;1900;48.890;9.190;2022-08-03T13:14:50;39.90;47.00
3770;DHT22;1900;48.890;9.190;2022-08-03T13:17:16;40.00;47.30
3770;DHT22;1900;48.890;9.190;2022-08-03T13:19:44;40.00;47.10
3770;DHT22;1900;48.890;9.190;2022-08-03T13:22:15;40.10;46.80
3770;DHT22;1900;48.890;9.190;2022-08-03T13:24:42;40.20;46.90
3770;DHT22;1900;48.890;9.190;2022-08-03T13:27:09;40.30;47.00
3770;DHT22;1900;48.890;9.190;2022-08-03T13:29:34;40.40;45.80
3770;DHT22;1900;48.890;9.190;2022-08-03T13:32:01;40.40;46.00
3770;DHT22;1900;48.890;9.190;2022-08-03T13:34:27;40.50;46.10
3770;DHT22;1900;48.890;9.190;2022-08-03T13:36:53;40.50;46.40
3770;DHT22;1900;48.890;9.190;2022-08-03T13:39:19;40.50;46.60
3770;DHT22;1900;48.890;9.190;2022-08-03T13:41:45;40.70;46.80
3770;DHT22;1900;48.890;9.190;2022-08-03T13:44:11;40.70;46.70
3770;DHT22;1900;48.890;9.190;2022-08-03T13:46:37;40.80;46.80
3770;DHT22;1900;48.890;9.190;2022-08-03T13:49:03;41.00;47.00
3770;DHT22;1900;48.890;9.190;2022-08-03T13:51:29;41.10;46.90
3770;DHT22;1900;48.890;9.190;2022-08-03T13:53:55;41.20;47.00
3770;DHT22;1900;48.890;9.190;2022-08-03T13:56:23;41.30;47.00
3770;DHT22;1900;48.890;9.190;2022-08-03T13:58:49;41.40;46.80
3770;DHT22;1900;48.890;9.190;2022-08-03T14:01:15;41.50;46.60
3770;DHT22;1900;48.890;9.190;2022-08-03T14:03:40;41.60;46.70
3770;DHT22;1900;48.890;9.190;2022-08-03T14:06:06;41.60;46.50
3770;DHT22;1900;48.890;9.190;2022-08-03T14:08:32;41.70;46.40
3770;DHT22;1900;48.890;9.190;2022-08-03T14:10:57;41.70;46.20
3770;DHT22;1900;48.890;9.190;2022-08-03T14:13:23;41.80;44.00
3770;DHT22;1900;48.890;9.190;2022-08-03T14:15:49;41.70;43.80
3770;DHT22;1900;48.890;9.190;2022-08-03T14:18:20;41.70;44.80
3770;DHT22;1900;48.890;9.190;2022-08-03T14:20:46;41.70;44.30
3770;DHT22;1900;48.890;9.190;2022-08-03T14:23:12;41.60;44.60
3770;DHT22;1900;48.890;9.190;2022-08-03T14:25:38;41.60;44.80
3770;DHT22;1900;48.890;9.190;2022-08-03T14:28:06;41.60;44.90
3770;DHT22;1900;48.890;9.190;2022-08-03T14:30:32;41.70;45.00
3770;DHT22;1900;48.890;9.190;2022-08-03T14:32:58;41.70;44.90
3770;DHT22;1900;48.890;9.190;2022-08-03T14:35:24;41.70;44.90
3770;DHT22;1900;48.890;9.190;2022-08-03T14:37:49;41.70;45.00
3770;DHT22;1900;48.890;9.190;2022-08-03T14:40:17;41.80;44.90
3770;DHT22;1900;48.890;9.190;2022-08-03T14:42:43;41.80;45.10
3770;DHT22;1900;48.890;9.190;2022-08-03T14:45:09;41.90;45.00
3770;DHT22;1900;48.890;9.190;2022-08-03T14:47:35;41.90;45.10
3770;DHT22;1900;48.890;9.190;2022-08-03T14:50:00;42.00;45.20
3770;DHT22;1900;48.890;9.190;2022-08-03T14:52:29;42.10;45.10
3770;DHT22;1900;48.890;9.190;2022-08-03T14:54:56;42.20;44.90
3770;DHT22;1900;48.890;9.190;2022-08-03T14:57:22;42.30;44.50
3770;DHT22;1900;48.890;9.190;2022-08-03T14:59:48;42.20;44.40
3770;DHT22;1900;48.890;9.190;2022-08-03T15:02:14;42.30;44.50
3770;DHT22;1900;48.890;9.190;2022-08-03T15:04:40;42.20;44.50
3770;DHT22;1900;48.890;9.190;2022-08-03T15:07:06;42.30;44.40
3770;DHT22;1900;48.890;9.190;2022-08-03T15:09:32;42.30;44.40
3770;DHT22;1900;48.890;9.190;2022-08-03T15:11:58;42.40;44.40
3770;DHT22;1900;48.890;9.190;2022-08-03T15:14:24;42.40;44.40
3770;DHT22;1900;48.890;9.190;2022-08-03T15:16:50;42.40;44.10
3770;DHT22;1900;48.890;9.190;2022-08-03T15:19:16;42.30;44.00
3770;DHT22;1900;48.890;9.190;2022-08-03T15:21:41;42.30;44.00
3770;DHT22;1900;48.890;9.190;2022-08-03T15:24:07;42.20;43.70
3770;DHT22;1900;48.890;9.190;2022-08-03T15:26:33;42.20;43.40
3770;DHT22;1900;48.890;9.190;2022-08-03T15:28:59;42.10;43.10
3770;DHT22;1900;48.890;9.190;2022-08-03T15:31:25;42.00;43.00
3770;DHT22;1900;48.890;9.190;2022-08-03T15:33:50;41.90;42.90
3770;DHT22;1900;48.890;9.190;2022-08-03T15:36:17;41.90;42.90
3770;DHT22;1900;48.890;9.190;2022-08-03T15:38:43;41.80;42.90
3770;DHT22;1900;48.890;9.190;2022-08-03T15:41:09;41.70;42.70
3770;DHT22;1900;48.890;9.190;2022-08-03T15:43:35;41.60;42.60
3770;DHT22;1900;48.890;9.190;2022-08-03T15:46:01;41.60;42.70
3770;DHT22;1900;48.890;9.190;2022-08-03T15:48:27;41.50;42.30
3770;DHT22;1900;48.890;9.190;2022-08-03T15:50:53;41.40;42.30
3770;DHT22;1900;48.890;9.190;2022-08-03T15:53:19;41.30;42.30
3770;DHT22;1900;48.890;9.190;2022-08-03T15:55:45;41.20;42.10
3770;DHT22;1900;48.890;9.190;2022-08-03T15:58:11;41.20;42.30
3770;DHT22;1900;48.890;9.190;2022-08-03T16:00:38;41.00;42.20
3770;DHT22;1900;48.890;9.190;2022-08-03T16:03:04;41.00;42.00
3770;DHT22;1900;48.890;9.190;2022-08-03T16:05:30;40.90;41.80
3770;DHT22;1900;48.890;9.190;2022-08-03T16:07:56;40.80;41.90
3770;DHT22;1900;48.890;9.190;2022-08-03T16:10:22;40.70;41.90
3770;DHT22;1900;48.890;9.190;2022-08-03T16:12:47;40.60;41.90
3770;DHT22;1900;48.890;9.190;2022-08-03T16:15:13;40.60;41.80
3770;DHT22;1900;48.890;9.190;2022-08-03T16:17:40;40.50;41.70
3770;DHT22;1900;48.890;9.190;2022-08-03T16:20:08;40.40;41.80
3770;DHT22;1900;48.890;9.190;2022-08-03T16:22:41;40.30;41.90
3770;DHT22;1900;48.890;9.190;2022-08-03T16:25:07;40.30;41.90
3770;DHT22;1900;48.890;9.190;2022-08-03T16:27:33;40.20;42.10
3770;DHT22;1900;48.890;9.190;2022-08-03T16:29:59;40.20;42.10
3770;DHT22;1900;48.890;9.190;2022-08-03T16:32:24;40.10;42.10
3770;DHT22;1900;48.890;9.190;2022-08-03T16:34:50;40.00;42.10
3770;DHT22;1900;48.890;9.190;2022-08-03T16:37:16;39.90;42.00
3770;DHT22;1900;48.890;9.190;2022-08-03T16:39:41;39.90;41.90
3770;DHT22;1900;48.890;9.190;2022-08-03T16:42:07;39.80;41.90
3770;DHT22;1900;48.890;9.190;2022-08-03T16:44:33;39.70;41.70
3770;DHT22;1900;48.890;9.190;2022-08-03T16:47:02;39.70;41.60
3770;DHT22;1900;48.890;9.190;2022-08-03T16:49:27;39.60;41.70